Terminal Aerodrome Forecast
Issued by NWS Corpus Christi, TX

Current Version | Previous Version | Text Only | Print | Product List | Glossary On
Versions: 1 2 3 4 5 6 7 8 9 10 11 12 13 14 15 16 17 18
905
FTUS44 KCRP 201727
TAFVCT
TAF
KVCT 201727Z 2018/2118 09013KT P6SM SCT025 BKN040
      TEMPO 2018/2022 BKN029
     FM210300 11011KT P6SM BKN020
     FM210800 11009KT 6SM BR VCSH OVC018
     FM211600 14014KT P6SM VCSH SCT017 BKN025=

USA.gov is the U.S. government's official web portal to all federal, state and local government web resources and services.